| time (UTC) | temp F | wind direction | speed MPH | gust MPH | rain 1hr in | rain 24hr in | rain mn in | humidity % | barometer mb |
| 20260906161547 | 96 | 360 | 1.0 | 0.0 | 0.00 | 0.00 | 0.00 | 47 | 1013.4 |
| 20260906160044 | 94 | 156 | 1.0 | 0.0 | 0.00 | 0.00 | 0.00 | 50 | 1013.4 |
| 20260906154639 | 93 | 123 | 1.0 | 0.0 | 0.00 | 0.00 | 0.00 | 52 | 1013.4 |
| 20260906153034 | 92 | 55 | 2.0 | 0.0 | 0.00 | 0.00 | 0.00 | 54 | 1013.3 |
| 20260906151530 | 90 | 360 | 2.0 | 0.0 | 0.00 | 0.00 | 0.00 | 57 | 1013.4 |
| 20260906150030 | 89 | 17 | 2.0 | 0.0 | 0.00 | 0.00 | 0.00 | 56 | 1013.3 |
| 20260906144625 | 88 | 39 | 1.0 | 0.0 | 0.00 | 0.00 | 0.00 | 60 | 1013.3 |
| 20260906143033 | 87 | 36 | 2.0 | 0.0 | 0.00 | 0.00 | 0.00 | 60 | 1013.3 |
| 20260906141529 | 87 | 124 | 2.0 | 0.0 | 0.00 | 0.00 | 0.00 | 60 | 1013.2 |
| 20260906140030 | 86 | 112 | 1.0 | 0.0 | 0.00 | 0.00 | 0.00 | 62 | 1013.1 |
| 20260906134615 | 83 | 92 | 1.0 | 0.0 | 0.00 | 0.00 | 0.00 | 68 | 1013.2 |
| 20260906133012 | 80 | 150 | 1.0 | 0.0 | 0.00 | 0.00 | 0.00 | 71 | 1013.1 |
| 20260906131520 | 77 | 144 | 0.0 | 0.0 | 0.00 | 0.00 | 0.00 | 75 | 1013.0 |
| 20260906130009 | 75 | 165 | 1.0 | 0.0 | 0.00 | 0.00 | 0.00 | 78 | 1013.1 |
| 20260906124612 | 73 | 150 | 0.0 | 0.0 | 0.00 | 0.00 | 0.00 | 80 | 1012.9 |
| 20260906123007 | 73 | 122 | 0.0 | 0.0 | 0.00 | 0.00 | 0.00 | 80 | 1012.7 |
| 20260906121507 | 73 | 114 | 1.0 | 0.0 | 0.00 | 0.00 | 0.00 | 80 | 1012.6 |
| 20260906120006 | 72 | 193 | 0.0 | 0.0 | 0.00 | 0.00 | 0.00 | 81 | 1012.4 |
| 20260906114610 | 72 | 194 | 0.0 | 0.0 | 0.00 | 0.00 | 0.00 | 80 | 1012.2 |
| 20260906113002 | 73 | 200 | 0.0 | 0.0 | 0.00 | 0.00 | 0.00 | 80 | 1012.0 |
| 20260906111616 | 73 | 200 | 0.0 | 0.0 | 0.00 | 0.00 | 0.00 | 79 | 1011.9 |
| 20260906110059 | 73 | 198 | 0.0 | 0.0 | 0.00 | 0.00 | 0.00 | 78 | 1011.9 |
| 20260906104557 | 74 | 198 | 0.0 | 0.0 | 0.00 | 0.00 | 0.00 | 77 | 1011.9 |
| 20260906103056 | 74 | 200 | 0.0 | 0.0 | 0.00 | 0.00 | 0.00 | 77 | 1011.9 |
| 20260906101556 | 74 | 200 | 0.0 | 0.0 | 0.00 | 0.00 | 0.00 | 76 | 1011.9 |
| 20260906100054 | 74 | 201 | 0.0 | 0.0 | 0.00 | 0.00 | 0.00 | 76 | 1011.8 |
| 20260906094554 | 75 | 198 | 0.0 | 0.0 | 0.00 | 0.00 | 0.00 | 75 | 1011.6 |
| 20260906093059 | 75 | 199 | 0.0 | 0.0 | 0.00 | 0.00 | 0.00 | 74 | 1011.6 |
| 20260906091603 | 76 | 199 | 0.0 | 0.0 | 0.00 | 0.00 | 0.00 | 73 | 1011.5 |
| 20260906090058 | 76 | 200 | 0.0 | 0.0 | 0.00 | 0.00 | 0.00 | 71 | 1011.3 |
| 20260906084555 | 77 | 197 | 0.0 | 0.0 | 0.00 | 0.00 | 0.00 | 70 | 1011.4 |
| 20260906083047 | 77 | 141 | 1.0 | 0.0 | 0.00 | 0.00 | 0.00 | 70 | 1011.4 |
| 20260906081546 | 77 | 101 | 1.0 | 0.0 | 0.00 | 0.00 | 0.00 | 69 | 1011.2 |
| 20260906080044 | 77 | 120 | 1.0 | 0.0 | 0.00 | 0.00 | 0.00 | 69 | 1011.3 |
| 20260906074543 | 78 | 151 | 1.0 | 0.0 | 0.00 | 0.00 | 0.00 | 68 | 1011.4 |
| 20260906073044 | 78 | 125 | 1.0 | 0.0 | 0.00 | 0.00 | 0.00 | 67 | 1011.5 |
| 20260906071556 | 78 | 127 | 2.0 | 0.0 | 0.00 | 0.00 | 0.00 | 66 | 1011.6 |
| 20260906070040 | 78 | 123 | 2.0 | 0.0 | 0.00 | 0.00 | 0.00 | 66 | 1011.6 |
| 20260906064540 | 78 | 134 | 1.0 | 0.0 | 0.00 | 0.00 | 0.00 | 67 | 1011.8 |
| 20260906063040 | 78 | 142 | 0.0 | 0.0 | 0.00 | 0.00 | 0.00 | 67 | 1012.0 |
| 20260906061540 | 78 | 141 | 0.0 | 0.0 | 0.00 | 0.00 | 0.00 | 68 | 1011.9 |
| 20260906060038 | 78 | 141 | 0.0 | 0.0 | 0.00 | 0.00 | 0.00 | 67 | 1011.8 |
| 20260906054538 | 78 | 121 | 0.0 | 0.0 | 0.00 | 0.00 | 0.00 | 67 | 1012.0 |
| 20260906053036 | 78 | 149 | 0.0 | 0.0 | 0.00 | 0.00 | 0.00 | 67 | 1011.9 |
| 20260906051534 | 79 | 149 | 0.0 | 0.0 | 0.00 | 0.00 | 0.00 | 66 | 1011.8 |
| 20260906050032 | 79 | 150 | 0.0 | 0.0 | 0.00 | 0.00 | 0.01 | 65 | 1011.8 |
| 20260906044532 | 80 | 149 | 0.0 | 0.0 | 0.00 | 0.00 | 0.01 | 64 | 1011.7 |
| 20260906043033 | 80 | 149 | 1.0 | 0.0 | 0.00 | 0.00 | 0.01 | 63 | 1012.0 |
| 20260906041533 | 80 | 123 | 1.0 | 0.0 | 0.00 | 0.00 | 0.01 | 63 | 1011.9 |
| 20260906040038 | 80 | 142 | 1.0 | 0.0 | 0.00 | 0.00 | 0.01 | 63 | 1011.8 |
| 20260906034542 | 80 | 150 | 0.0 | 0.0 | 0.00 | 0.00 | 0.01 | 62 | 1011.8 |
| 20260906033032 | 80 | 151 | 0.0 | 0.0 | 0.00 | 0.00 | 0.01 | 62 | 1011.6 |
| 20260906031530 | 81 | 150 | 0.0 | 0.0 | 0.00 | 0.00 | 0.01 | 61 | 1011.5 |
| 20260906030031 | 81 | 136 | 1.0 | 0.0 | 0.00 | 0.00 | 0.01 | 61 | 1011.5 |
| 20260906024530 | 81 | 141 | 1.0 | 0.0 | 0.00 | 0.00 | 0.01 | 61 | 1011.2 |
| 20260906023033 | 81 | 165 | 1.0 | 0.0 | 0.00 | 0.00 | 0.01 | 61 | 1011.0 |
| 20260906021532 | 81 | 170 | 0.0 | 0.0 | 0.00 | 0.00 | 0.01 | 61 | 1011.0 |
| 20260906020038 | 82 | 146 | 0.0 | 0.0 | 0.00 | 0.00 | 0.01 | 59 | 1010.7 |
| 20260906014548 | 82 | 142 | 0.0 | 0.0 | 0.00 | 0.00 | 0.01 | 59 | 1010.5 |
| 20260906013033 | 82 | 147 | 1.0 | 0.0 | 0.00 | 0.00 | 0.01 | 58 | 1010.6 |
| 20260906011538 | 83 | 158 | 1.0 | 0.0 | 0.00 | 0.00 | 0.01 | 58 | 1010.4 |
| 20260906010029 | 83 | 110 | 1.0 | 0.0 | 0.00 | 0.00 | 0.01 | 57 | 1010.5 |
| 20260906004537 | 84 | 84 | 1.0 | 0.0 | 0.00 | 0.00 | 0.01 | 56 | 1010.5 |
| 20260906003046 | 85 | 17 | 2.0 | 0.0 | 0.00 | 0.00 | 0.01 | 57 | 1010.5 |
| 20260906001532 | 85 | 11 | 2.0 | 0.0 | 0.00 | 0.00 | 0.01 | 58 | 1010.6 |
| 20260906000032 | 84 | 30 | 1.0 | 0.0 | 0.00 | 0.00 | 0.01 | 62 | 1010.8 |
| 20260905234532 | 85 | 5 | 0.0 | 0.0 | 0.00 | 0.00 | 0.01 | 64 | 1010.0 |
| 20260905233031 | 86 | 24 | 1.0 | 0.0 | 0.00 | 0.00 | 0.01 | 62 | 1010.1 |
| 20260905231535 | 89 | 252 | 3.0 | 0.0 | 0.00 | 0.00 | 0.01 | 57 | 1010.1 |
| 20260905230028 | 93 | 35 | 6.0 | 0.0 | 0.00 | 0.00 | 0.00 | 46 | 1010.2 |
| 20260905224533 | 94 | 121 | 0.0 | 0.0 | 0.00 | 0.00 | 0.00 | 42 | 1010.0 |
| 20260905223027 | 94 | 122 | 1.0 | 0.0 | 0.00 | 0.00 | 0.00 | 42 | 1009.9 |
| 20260905221527 | 95 | 115 | 1.0 | 0.0 | 0.00 | 0.00 | 0.00 | 42 | 1009.8 |
| 20260905220026 | 96 | 119 | 0.0 | 0.0 | 0.00 | 0.00 | 0.00 | 42 | 1009.9 |
| 20260905214526 | 96 | 96 | 1.0 | 0.0 | 0.00 | 0.00 | 0.00 | 42 | 1010.0 |
| 20260905213038 | 97 | 86 | 1.0 | 0.0 | 0.00 | 0.00 | 0.00 | 40 | 1010.0 |
| 20260905211525 | 98 | 26 | 2.0 | 0.0 | 0.00 | 0.00 | 0.00 | 39 | 1010.1 |
| 20260905210024 | 98 | 16 | 3.0 | 0.0 | 0.00 | 0.00 | 0.00 | 38 | 1010.4 |
| 20260905204525 | 98 | 325 | 1.0 | 0.0 | 0.00 | 0.00 | 0.00 | 38 | 1010.5 |
| 20260905203023 | 98 | 340 | 1.0 | 0.0 | 0.00 | 0.00 | 0.00 | 38 | 1010.6 |
| 20260905201523 | 98 | 107 | 3.0 | 0.0 | 0.00 | 0.00 | 0.00 | 36 | 1010.9 |
| 20260905200020 | 99 | 190 | 1.0 | 0.0 | 0.00 | 0.00 | 0.00 | 37 | 1011.1 |
| 20260905194519 | 99 | 190 | 1.0 | 0.0 | 0.00 | 0.00 | 0.00 | 36 | 1011.4 |
| 20260905193019 | 101 | 94 | 2.0 | 0.0 | 0.00 | 0.00 | 0.00 | 36 | 1011.6 |
| 20260905191517 | 101 | 328 | 2.0 | 0.0 | 0.00 | 0.00 | 0.00 | 36 | 1011.8 |
| 20260905190016 | 102 | 308 | 2.0 | 0.0 | 0.00 | 0.00 | 0.00 | 37 | 1012.0 |
| 20260905184516 | 101 | 105 | 4.0 | 0.0 | 0.00 | 0.00 | 0.00 | 39 | 1012.3 |
| 20260905183014 | 103 | 16 | 2.0 | 0.0 | 0.00 | 0.00 | 0.00 | 36 | 1012.4 |
| 20260905181513 | 103 | 275 | 3.0 | 0.0 | 0.00 | 0.00 | 0.00 | 35 | 1012.6 |
| 20260905180016 | 102 | 229 | 5.0 | 0.0 | 0.00 | 0.00 | 0.00 | 37 | 1012.9 |
| 20260905174512 | 102 | 68 | 1.0 | 0.0 | 0.00 | 0.00 | 0.00 | 39 | 1013.0 |
| 20260905173006 | 101 | 210 | 1.0 | 0.0 | 0.00 | 0.00 | 0.00 | 42 | 1013.1 |
| 20260905171513 | 101 | 34 | 3.0 | 0.0 | 0.00 | 0.00 | 0.00 | 40 | 1013.3 |
| 20260905170003 | 99 | 13 | 2.0 | 0.0 | 0.00 | 0.00 | 0.00 | 43 | 1013.5 |
| 20260905164601 | 98 | 338 | 2.0 | 0.0 | 0.00 | 0.00 | 0.00 | 46 | 1013.5 |
| 20260905163058 | 97 | 17 | 3.0 | 0.0 | 0.00 | 0.00 | 0.00 | 46 | 1013.6 |